sensor_id;sensor_type;location;lat;lon;timestamp;pressure;altitude;pressure_sealevel;temperature;humidity
16355;BME280;8287;51.644;8.494;2023-06-22T00:01:12;100646.66;;;22.92;84.11
16355;BME280;8287;51.644;8.494;2023-06-22T00:03:39;100646.31;;;22.97;83.28
16355;BME280;8287;51.644;8.494;2023-06-22T00:06:05;100633.16;;;22.89;84.12
16355;BME280;8287;51.644;8.494;2023-06-22T00:08:32;100640.81;;;22.83;85.08
16355;BME280;8287;51.644;8.494;2023-06-22T00:10:58;100636.22;;;22.87;84.92
16355;BME280;8287;51.644;8.494;2023-06-22T00:13:25;100636.97;;;22.88;85.22
16355;BME280;8287;51.644;8.494;2023-06-22T00:15:53;100618.78;;;22.78;85.69
16355;BME280;8287;51.644;8.494;2023-06-22T00:18:19;100623.84;;;22.83;85.21
16355;BME280;8287;51.644;8.494;2023-06-22T00:20:46;100618.47;;;22.86;85.13
16355;BME280;8287;51.644;8.494;2023-06-22T00:23:12;100597.56;;;22.83;84.84
16355;BME280;8287;51.644;8.494;2023-06-22T00:25:41;100589.50;;;22.87;84.70
16355;BME280;8287;51.644;8.494;2023-06-22T00:28:08;100598.38;;;22.87;84.88
16355;BME280;8287;51.644;8.494;2023-06-22T00:30:34;100602.97;;;22.80;85.70
16355;BME280;8287;51.644;8.494;2023-06-22T00:33:03;100593.31;;;22.79;85.87
16355;BME280;8287;51.644;8.494;2023-06-22T00:35:33;100594.44;;;22.74;85.81
16355;BME280;8287;51.644;8.494;2023-06-22T00:38:00;100596.00;;;22.75;85.97
16355;BME280;8287;51.644;8.494;2023-06-22T00:40:29;100597.94;;;22.75;85.84
16355;BME280;8287;51.644;8.494;2023-06-22T00:42:56;100592.16;;;22.76;85.95
16355;BME280;8287;51.644;8.494;2023-06-22T00:45:23;100598.72;;;22.82;85.47
16355;BME280;8287;51.644;8.494;2023-06-22T00:47:50;100602.22;;;22.79;86.05
16355;BME280;8287;51.644;8.494;2023-06-22T00:50:20;100595.59;;;22.73;86.56
16355;BME280;8287;51.644;8.494;2023-06-22T00:52:50;100597.56;;;22.76;86.02
16355;BME280;8287;51.644;8.494;2023-06-22T00:55:18;100598.72;;;22.79;86.19
16355;BME280;8287;51.644;8.494;2023-06-22T00:57:46;100594.44;;;22.67;86.67
16355;BME280;8287;51.644;8.494;2023-06-22T01:00:13;100588.66;;;22.72;86.86
16355;BME280;8287;51.644;8.494;2023-06-22T01:02:41;100586.34;;;22.74;86.33
16355;BME280;8287;51.644;8.494;2023-06-22T01:05:10;100592.53;;;22.75;86.50
16355;BME280;8287;51.644;8.494;2023-06-22T01:07:44;100587.09;;;22.71;86.76
16355;BME280;8287;51.644;8.494;2023-06-22T01:10:16;100590.59;;;22.72;86.49
16355;BME280;8287;51.644;8.494;2023-06-22T01:12:49;100595.97;;;22.68;86.47
16355;BME280;8287;51.644;8.494;2023-06-22T01:15:21;100595.97;;;22.68;86.01
16355;BME280;8287;51.644;8.494;2023-06-22T01:17:49;100590.56;;;22.68;86.21
16355;BME280;8287;51.644;8.494;2023-06-22T01:20:19;100584.34;;;22.61;86.99
16355;BME280;8287;51.644;8.494;2023-06-22T01:22:59;100585.47;;;22.56;87.55
16355;BME280;8287;51.644;8.494;2023-06-22T01:25:33;100583.16;;;22.58;87.99
16355;BME280;8287;51.644;8.494;2023-06-22T01:28:11;100588.19;;;22.56;87.58
16355;BME280;8287;51.644;8.494;2023-06-22T01:30:49;100588.94;;;22.53;87.89
16355;BME280;8287;51.644;8.494;2023-06-22T01:33:33;100584.69;;;22.49;88.74
16355;BME280;8287;51.644;8.494;2023-06-22T01:36:01;100587.41;;;22.52;88.65
16355;BME280;8287;51.644;8.494;2023-06-22T01:38:29;100582.75;;;22.53;88.53
16355;BME280;8287;51.644;8.494;2023-06-22T01:40:57;100592.78;;;22.49;88.82
16355;BME280;8287;51.644;8.494;2023-06-22T01:43:25;100589.66;;;22.43;89.79
16355;BME280;8287;51.644;8.494;2023-06-22T01:45:53;100593.16;;;22.47;89.85
16355;BME280;8287;51.644;8.494;2023-06-22T01:48:21;100592.00;;;22.48;89.59
16355;BME280;8287;51.644;8.494;2023-06-22T01:50:48;100592.00;;;22.52;89.25
16355;BME280;8287;51.644;8.494;2023-06-22T01:53:15;100586.63;;;22.55;88.68
16355;BME280;8287;51.644;8.494;2023-06-22T01:55:41;100576.63;;;22.59;87.63
16355;BME280;8287;51.644;8.494;2023-06-22T01:58:08;100582.81;;;22.63;87.34
16355;BME280;8287;51.644;8.494;2023-06-22T02:00:37;100577.44;;;22.67;86.90
16355;BME280;8287;51.644;8.494;2023-06-22T02:03:11;100584.78;;;22.73;86.57
16355;BME280;8287;51.644;8.494;2023-06-22T02:05:48;100589.03;;;22.74;86.37
16355;BME280;8287;51.644;8.494;2023-06-22T02:08:20;100597.56;;;22.76;86.14
16355;BME280;8287;51.644;8.494;2023-06-22T02:10:48;100597.56;;;22.83;85.78
16355;BME280;8287;51.644;8.494;2023-06-22T02:13:15;100599.53;;;22.83;85.62
16355;BME280;8287;51.644;8.494;2023-06-22T02:15:42;100599.91;;;22.85;85.52
16355;BME280;8287;51.644;8.494;2023-06-22T02:18:10;100603.66;;;22.59;88.22
16355;BME280;8287;51.644;8.494;2023-06-22T02:20:38;100601.28;;;22.51;88.70
16355;BME280;8287;51.644;8.494;2023-06-22T02:23:05;100606.34;;;22.59;88.30
16355;BME280;8287;51.644;8.494;2023-06-22T02:25:32;100611.38;;;22.64;87.53
16355;BME280;8287;51.644;8.494;2023-06-22T02:27:59;100610.63;;;22.71;87.16
16355;BME280;8287;51.644;8.494;2023-06-22T02:30:26;100605.22;;;22.71;87.03
16355;BME280;8287;51.644;8.494;2023-06-22T02:32:52;100603.72;;;22.73;87.16
16355;BME280;8287;51.644;8.494;2023-06-22T02:35:25;100602.59;;;22.81;86.03
16355;BME280;8287;51.644;8.494;2023-06-22T02:37:52;100608.75;;;22.78;86.87
16355;BME280;8287;51.644;8.494;2023-06-22T02:40:18;100602.94;;;22.73;87.50
16355;BME280;8287;51.644;8.494;2023-06-22T02:42:45;100596.00;;;22.72;87.22
16355;BME280;8287;51.644;8.494;2023-06-22T02:45:12;100599.06;;;22.70;87.19
16355;BME280;8287;51.644;8.494;2023-06-22T02:47:38;100592.13;;;22.69;87.37
16355;BME280;8287;51.644;8.494;2023-06-22T02:50:05;100595.97;;;22.68;87.86
16355;BME280;8287;51.644;8.494;2023-06-22T02:52:33;100602.16;;;22.69;87.96
16355;BME280;8287;51.644;8.494;2023-06-22T02:55:00;100599.84;;;22.67;88.60
16355;BME280;8287;51.644;8.494;2023-06-22T02:57:27;100589.75;;;22.61;88.72
16355;BME280;8287;51.644;8.494;2023-06-22T02:59:53;100588.19;;;22.60;89.06
16355;BME280;8287;51.644;8.494;2023-06-22T03:02:20;100592.00;;;22.52;89.38
16355;BME280;8287;51.644;8.494;2023-06-22T03:04:47;100592.81;;;22.52;89.44
16355;BME280;8287;51.644;8.494;2023-06-22T03:07:14;100583.91;;;22.52;89.22
16355;BME280;8287;51.644;8.494;2023-06-22T03:09:43;100584.28;;;22.50;88.66
16355;BME280;8287;51.644;8.494;2023-06-22T03:12:10;100577.31;;;22.49;88.72
16355;BME280;8287;51.644;8.494;2023-06-22T03:14:37;100581.59;;;22.54;88.57
16355;BME280;8287;51.644;8.494;2023-06-22T03:17:04;100579.69;;;22.54;88.46
16355;BME280;8287;51.644;8.494;2023-06-22T03:19:31;100573.91;;;22.52;88.63
16355;BME280;8287;51.644;8.494;2023-06-22T03:21:59;100564.72;;;22.13;91.09
16355;BME280;8287;51.644;8.494;2023-06-22T03:24:26;100569.06;;;22.25;91.76
16355;BME280;8287;51.644;8.494;2023-06-22T03:26:56;100569.28;;;22.02;92.71
16355;BME280;8287;51.644;8.494;2023-06-22T03:29:23;100575.03;;;22.01;93.75
16355;BME280;8287;51.644;8.494;2023-06-22T03:31:50;100575.53;;;22.13;92.66
16355;BME280;8287;51.644;8.494;2023-06-22T03:34:17;100564.03;;;22.23;92.05
16355;BME280;8287;51.644;8.494;2023-06-22T03:36:43;100556.34;;;22.25;91.36
16355;BME280;8287;51.644;8.494;2023-06-22T03:39:11;100562.53;;;22.29;91.27
16355;BME280;8287;51.644;8.494;2023-06-22T03:41:38;100562.94;;;22.35;90.90
16355;BME280;8287;51.644;8.494;2023-06-22T03:44:06;100564.13;;;22.37;90.15
16355;BME280;8287;51.644;8.494;2023-06-22T03:46:35;100564.13;;;22.37;90.02
16355;BME280;8287;51.644;8.494;2023-06-22T03:49:02;100559.91;;;22.40;89.73
16355;BME280;8287;51.644;8.494;2023-06-22T03:51:29;100564.19;;;22.41;89.86
16355;BME280;8287;51.644;8.494;2023-06-22T03:53:55;100567.28;;;22.46;89.27
16355;BME280;8287;51.644;8.494;2023-06-22T03:56:22;100568.09;;;22.47;89.48
16355;BME280;8287;51.644;8.494;2023-06-22T03:58:48;100567.22;;;22.39;89.92
16355;BME280;8287;51.644;8.494;2023-06-22T04:01:17;100562.56;;;22.36;90.60
16355;BME280;8287;51.644;8.494;2023-06-22T04:03:44;100567.09;;;22.18;91.89
16355;BME280;8287;51.644;8.494;2023-06-22T04:06:13;100565.53;;;22.21;92.66
16355;BME280;8287;51.644;8.494;2023-06-22T04:08:39;100575.63;;;22.27;92.45
16355;BME280;8287;51.644;8.494;2023-06-22T04:11:07;100579.88;;;22.28;92.32
16355;BME280;8287;51.644;8.494;2023-06-22T04:13:33;100580.25;;;22.27;91.83
16355;BME280;8287;51.644;8.494;2023-06-22T04:16:00;100578.72;;;22.29;92.00
16355;BME280;8287;51.644;8.494;2023-06-22T04:18:28;100574.78;;;22.20;93.17
16355;BME280;8287;51.644;8.494;2023-06-22T04:20:55;100569.06;;;22.25;93.09
16355;BME280;8287;51.644;8.494;2023-06-22T04:23:22;100581.75;;;22.17;93.85
16355;BME280;8287;51.644;8.494;2023-06-22T04:25:48;100575.22;;;22.22;93.39
16355;BME280;8287;51.644;8.494;2023-06-22T04:28:16;100582.88;;;22.16;94.03
16355;BME280;8287;51.644;8.494;2023-06-22T04:30:43;100584.84;;;22.19;93.91
16355;BME280;8287;51.644;8.494;2023-06-22T04:33:13;100575.22;;;22.22;93.78
16355;BME280;8287;51.644;8.494;2023-06-22T04:35:41;100572.16;;;22.27;93.52
16355;BME280;8287;51.644;8.494;2023-06-22T04:38:08;100560.63;;;22.37;92.44
16355;BME280;8287;51.644;8.494;2023-06-22T04:40:34;100566.53;;;22.49;91.59
16355;BME280;8287;51.644;8.494;2023-06-22T04:43:01;100565.38;;;22.47;91.63
16355;BME280;8287;51.644;8.494;2023-06-22T04:45:29;100551.47;;;22.48;91.32
16355;BME280;8287;51.644;8.494;2023-06-22T04:47:55;100553.41;;;22.44;91.81
16355;BME280;8287;51.644;8.494;2023-06-22T04:50:22;100551.31;;;22.24;93.49
16355;BME280;8287;51.644;8.494;2023-06-22T04:52:50;100556.91;;;21.98;94.14
16355;BME280;8287;51.644;8.494;2023-06-22T04:55:18;100543.50;;;22.12;94.79
16355;BME280;8287;51.644;8.494;2023-06-22T04:57:45;100543.09;;;22.10;94.89
16355;BME280;8287;51.644;8.494;2023-06-22T05:00:15;100552.44;;;22.19;94.82
16355;BME280;8287;51.644;8.494;2023-06-22T05:02:43;100554.72;;;22.14;94.48
16355;BME280;8287;51.644;8.494;2023-06-22T05:05:10;100565.00;;;21.98;95.70
16355;BME280;8287;51.644;8.494;2023-06-22T05:07:39;100559.22;;;21.99;96.16
16355;BME280;8287;51.644;8.494;2023-06-22T05:10:10;100554.00;;;22.24;95.56
16355;BME280;8287;51.644;8.494;2023-06-22T05:12:37;100553.38;;;22.41;94.15
16355;BME280;8287;51.644;8.494;2023-06-22T05:15:05;100553.91;;;22.67;92.13
16355;BME280;8287;51.644;8.494;2023-06-22T05:17:32;100552.03;;;22.78;91.20
16355;BME280;8287;51.644;8.494;2023-06-22T05:19:59;100559.03;;;22.93;90.39
16355;BME280;8287;51.644;8.494;2023-06-22T05:22:26;100559.44;;;23.02;89.61
16355;BME280;8287;51.644;8.494;2023-06-22T05:24:52;100559.03;;;22.90;90.99
16355;BME280;8287;51.644;8.494;2023-06-22T05:27:20;100552.81;;;22.89;90.83
16355;BME280;8287;51.644;8.494;2023-06-22T05:29:47;100555.53;;;22.89;90.96
16355;BME280;8287;51.644;8.494;2023-06-22T05:32:14;100563.56;;;22.75;91.33
16355;BME280;8287;51.644;8.494;2023-06-22T05:34:40;100565.97;;;22.87;90.95
16355;BME280;8287;51.644;8.494;2023-06-22T05:37:07;100567.53;;;22.99;90.08
16355;BME280;8287;51.644;8.494;2023-06-22T05:39:35;100566.41;;;23.03;89.61
16355;BME280;8287;51.644;8.494;2023-06-22T05:42:04;100564.50;;;23.11;89.05
16355;BME280;8287;51.644;8.494;2023-06-22T05:44:32;100566.47;;;23.21;88.42
16355;BME280;8287;51.644;8.494;2023-06-22T05:47:00;100575.34;;;23.18;89.07
16355;BME280;8287;51.644;8.494;2023-06-22T05:49:26;100578.44;;;23.20;89.04
16355;BME280;8287;51.644;8.494;2023-06-22T05:51:55;100581.56;;;23.29;88.16
16355;BME280;8287;51.644;8.494;2023-06-22T05:54:21;100587.78;;;23.36;88.47
16355;BME280;8287;51.644;8.494;2023-06-22T05:56:48;100586.63;;;23.41;87.26
16355;BME280;8287;51.644;8.494;2023-06-22T05:59:14;100591.22;;;23.33;88.31
16355;BME280;8287;51.644;8.494;2023-06-22T06:01:42;100588.53;;;23.40;88.50
16355;BME280;8287;51.644;8.494;2023-06-22T06:04:09;100595.13;;;23.39;89.00
16355;BME280;8287;51.644;8.494;2023-06-22T06:06:35;100606.34;;;23.45;89.15
16355;BME280;8287;51.644;8.494;2023-06-22T06:09:03;100614.06;;;23.46;89.14
16355;BME280;8287;51.644;8.494;2023-06-22T06:11:29;100611.38;;;23.53;88.43
16355;BME280;8287;51.644;8.494;2023-06-22T06:13:56;100612.56;;;23.56;89.07
16355;BME280;8287;51.644;8.494;2023-06-22T06:16:22;100615.63;;;23.54;89.72
16355;BME280;8287;51.644;8.494;2023-06-22T06:18:50;100615.63;;;23.54;89.18
16355;BME280;8287;51.644;8.494;2023-06-22T06:21:18;100620.63;;;23.42;90.46
16355;BME280;8287;51.644;8.494;2023-06-22T06:23:45;100612.13;;;23.50;88.92
16355;BME280;8287;51.644;8.494;2023-06-22T06:26:12;100607.13;;;23.59;89.09
16355;BME280;8287;51.644;8.494;2023-06-22T06:28:41;100613.69;;;23.58;89.16
16355;BME280;8287;51.644;8.494;2023-06-22T06:31:08;100612.50;;;23.38;92.06
16355;BME280;8287;51.644;8.494;2023-06-22T06:33:34;100607.09;;;23.35;93.27
16355;BME280;8287;51.644;8.494;2023-06-22T06:36:03;100615.59;;;23.37;93.29
16355;BME280;8287;51.644;8.494;2023-06-22T06:38:29;100610.97;;;23.37;94.17
16355;BME280;8287;51.644;8.494;2023-06-22T06:40:56;100599.75;;;23.35;95.72
16355;BME280;8287;51.644;8.494;2023-06-22T06:43:22;100595.88;;;23.29;97.06
16355;BME280;8287;51.644;8.494;2023-06-22T06:45:50;100597.78;;;23.22;97.74
16355;BME280;8287;51.644;8.494;2023-06-22T06:48:16;100590.06;;;23.27;97.42
16355;BME280;8287;51.644;8.494;2023-06-22T06:50:43;100592.41;;;23.36;96.97
16355;BME280;8287;51.644;8.494;2023-06-22T06:53:11;100593.22;;;23.43;96.55
16355;BME280;8287;51.644;8.494;2023-06-22T06:55:38;100585.50;;;23.52;96.71
16355;BME280;8287;51.644;8.494;2023-06-22T06:58:04;100587.41;;;23.55;96.42
16355;BME280;8287;51.644;8.494;2023-06-22T07:00:32;100585.91;;;23.61;97.03
16355;BME280;8287;51.644;8.494;2023-06-22T07:03:01;100592.41;;;23.36;96.86
16355;BME280;8287;51.644;8.494;2023-06-22T07:05:27;100592.38;;;23.29;98.02
16355;BME280;8287;51.644;8.494;2023-06-22T07:07:54;100577.72;;;23.37;98.31
16355;BME280;8287;51.644;8.494;2023-06-22T07:10:22;100582.75;;;23.42;98.68
16355;BME280;8287;51.644;8.494;2023-06-22T07:12:48;100585.44;;;23.31;99.28
16355;BME280;8287;51.644;8.494;2023-06-22T07:15:15;100590.88;;;23.45;99.19
16355;BME280;8287;51.644;8.494;2023-06-22T07:17:42;100587.81;;;23.57;100.00
16355;BME280;8287;51.644;8.494;2023-06-22T07:20:09;100570.06;;;23.70;99.62
16355;BME280;8287;51.644;8.494;2023-06-22T07:22:37;100560.38;;;23.66;100.00
16355;BME280;8287;51.644;8.494;2023-06-22T07:25:05;100562.28;;;23.58;100.00
16355;BME280;8287;51.644;8.494;2023-06-22T07:27:36;100569.25;;;23.63;100.00
16355;BME280;8287;51.644;8.494;2023-06-22T07:30:05;100567.72;;;23.69;100.00
16355;BME280;8287;51.644;8.494;2023-06-22T07:32:32;100575.44;;;23.60;100.00
16355;BME280;8287;51.644;8.494;2023-06-22T07:34:59;100571.59;;;23.64;100.00
16355;BME280;8287;51.644;8.494;2023-06-22T07:37:27;100560.75;;;23.50;100.00
16355;BME280;8287;51.644;8.494;2023-06-22T07:39:54;100556.09;;;23.47;100.00
16355;BME280;8287;51.644;8.494;2023-06-22T07:42:24;100555.34;;;23.61;100.00
16355;BME280;8287;51.644;8.494;2023-06-22T07:44:52;100556.53;;;23.67;100.00
16355;BME280;8287;51.644;8.494;2023-06-22T07:47:18;100553.03;;;23.73;100.00
16355;BME280;8287;51.644;8.494;2023-06-22T07:49:45;100553.06;;;23.87;99.86
16355;BME280;8287;51.644;8.494;2023-06-22T07:52:12;100553.03;;;23.84;99.89
16355;BME280;8287;51.644;8.494;2023-06-22T07:54:39;100558.09;;;23.85;99.79
16355;BME280;8287;51.644;8.494;2023-06-22T07:57:06;100554.56;;;23.67;100.00
16355;BME280;8287;51.644;8.494;2023-06-22T07:59:32;100546.47;;;23.81;100.00
16355;BME280;8287;51.644;8.494;2023-06-22T08:02:00;100534.50;;;23.89;99.21
16355;BME280;8287;51.644;8.494;2023-06-22T08:04:28;100526.00;;;23.87;98.67
16355;BME280;8287;51.644;8.494;2023-06-22T08:06:56;100530.59;;;23.83;98.14
16355;BME280;8287;51.644;8.494;2023-06-22T08:09:22;100530.25;;;24.06;98.47
16355;BME280;8287;51.644;8.494;2023-06-22T08:11:49;100530.63;;;24.01;98.80
16355;BME280;8287;51.644;8.494;2023-06-22T08:14:16;100527.53;;;23.81;98.72
16355;BME280;8287;51.644;8.494;2023-06-22T08:16:42;100524.06;;;23.81;100.00
16355;BME280;8287;51.644;8.494;2023-06-22T08:19:10;100524.81;;;24.09;100.00
16355;BME280;8287;51.644;8.494;2023-06-22T08:21:37;100516.72;;;24.02;100.00
16355;BME280;8287;51.644;8.494;2023-06-22T08:24:04;100514.38;;;24.11;99.59
16355;BME280;8287;51.644;8.494;2023-06-22T08:26:32;100518.25;;;24.10;98.50
16355;BME280;8287;51.644;8.494;2023-06-22T08:29:01;100525.53;;;24.37;97.65
16355;BME280;8287;51.644;8.494;2023-06-22T08:31:28;100520.44;;;24.50;97.48
16355;BME280;8287;51.644;8.494;2023-06-22T08:33:55;100510.00;;;24.52;98.04
16355;BME280;8287;51.644;8.494;2023-06-22T08:36:23;100511.47;;;24.77;97.98
16355;BME280;8287;51.644;8.494;2023-06-22T08:38:49;100514.44;;;25.04;96.01
16355;BME280;8287;51.644;8.494;2023-06-22T08:41:16;100515.97;;;25.05;95.17
16355;BME280;8287;51.644;8.494;2023-06-22T08:43:44;100509.34;;;25.16;95.52
16355;BME280;8287;51.644;8.494;2023-06-22T08:46:10;100505.06;;;25.19;95.69
16355;BME280;8287;51.644;8.494;2023-06-22T08:48:37;100505.41;;;25.28;94.92
16355;BME280;8287;51.644;8.494;2023-06-22T08:51:04;100493.66;;;25.45;95.67
16355;BME280;8287;51.644;8.494;2023-06-22T08:53:32;100500.69;;;25.39;92.70
16355;BME280;8287;51.644;8.494;2023-06-22T08:56:00;100490.69;;;25.73;93.12
16355;BME280;8287;51.644;8.494;2023-06-22T08:58:26;100489.81;;;25.86;91.37
16355;BME280;8287;51.644;8.494;2023-06-22T09:00:53;100488.97;;;25.93;90.34
16355;BME280;8287;51.644;8.494;2023-06-22T09:03:20;100479.22;;;25.99;87.18
16355;BME280;8287;51.644;8.494;2023-06-22T09:05:46;100481.41;;;26.11;83.37
16355;BME280;8287;51.644;8.494;2023-06-22T09:08:13;100485.84;;;25.98;81.50
16355;BME280;8287;51.644;8.494;2023-06-22T09:10:41;100476.00;;;26.11;82.51
16355;BME280;8287;51.644;8.494;2023-06-22T09:13:08;100478.88;;;26.30;82.20
16355;BME280;8287;51.644;8.494;2023-06-22T09:15:34;100480.31;;;26.42;79.69
16355;BME280;8287;51.644;8.494;2023-06-22T09:18:01;100474.63;;;26.29;79.13
16355;BME280;8287;51.644;8.494;2023-06-22T09:20:28;100475.06;;;26.28;78.58
16355;BME280;8287;51.644;8.494;2023-06-22T09:22:55;100466.59;;;26.19;79.14
16355;BME280;8287;51.644;8.494;2023-06-22T09:25:21;100462.50;;;26.37;79.47
16355;BME280;8287;51.644;8.494;2023-06-22T09:27:49;100450.84;;;26.40;78.15
16355;BME280;8287;51.644;8.494;2023-06-22T09:30:16;100439.50;;;26.45;79.46
16355;BME280;8287;51.644;8.494;2023-06-22T09:32:43;100444.63;;;26.40;77.26
16355;BME280;8287;51.644;8.494;2023-06-22T09:35:09;100432.81;;;26.53;77.98
16355;BME280;8287;51.644;8.494;2023-06-22T09:37:38;100424.25;;;26.55;77.77
16355;BME280;8287;51.644;8.494;2023-06-22T09:40:06;100421.13;;;26.56;78.83
16355;BME280;8287;51.644;8.494;2023-06-22T09:42:35;100428.56;;;26.52;79.28
16355;BME280;8287;51.644;8.494;2023-06-22T09:45:04;100417.25;;;26.57;77.30
16355;BME280;8287;51.644;8.494;2023-06-22T09:47:31;100434.75;;;26.53;79.51
16355;BME280;8287;51.644;8.494;2023-06-22T09:49:58;100425.63;;;26.70;80.52
16355;BME280;8287;51.644;8.494;2023-06-22T09:52:25;100425.00;;;27.12;79.99
16355;BME280;8287;51.644;8.494;2023-06-22T09:54:52;100421.25;;;27.29;76.52
16355;BME280;8287;51.644;8.494;2023-06-22T09:57:18;100435.88;;;27.12;72.68
16355;BME280;8287;51.644;8.494;2023-06-22T09:59:45;100427.59;;;27.19;74.17
16355;BME280;8287;51.644;8.494;2023-06-22T10:02:13;100425.91;;;27.28;72.26
16355;BME280;8287;51.644;8.494;2023-06-22T10:04:40;100430.63;;;27.47;73.89
16355;BME280;8287;51.644;8.494;2023-06-22T10:07:06;100426.00;;;27.90;73.63
16355;BME280;8287;51.644;8.494;2023-06-22T10:09:33;100426.91;;;27.84;70.46
16355;BME280;8287;51.644;8.494;2023-06-22T10:11:59;100421.47;;;27.84;70.69
16355;BME280;8287;51.644;8.494;2023-06-22T10:14:26;100428.69;;;27.71;70.04
16355;BME280;8287;51.644;8.494;2023-06-22T10:16:54;100426.16;;;27.83;72.53
16355;BME280;8287;51.644;8.494;2023-06-22T10:19:23;100423.66;;;27.69;69.85
16355;BME280;8287;51.644;8.494;2023-06-22T10:21:49;100416.72;;;27.88;70.72
16355;BME280;8287;51.644;8.494;2023-06-22T10:24:16;100408.50;;;27.68;69.64
16355;BME280;8287;51.644;8.494;2023-06-22T10:26:42;100401.63;;;28.02;70.59
16355;BME280;8287;51.644;8.494;2023-06-22T10:29:09;100398.34;;;28.11;68.76
16355;BME280;8287;51.644;8.494;2023-06-22T10:31:35;100389.19;;;28.40;68.73
16355;BME280;8287;51.644;8.494;2023-06-22T10:34:02;100379.69;;;28.09;68.22
16355;BME280;8287;51.644;8.494;2023-06-22T10:36:30;100366.63;;;28.20;68.05
16355;BME280;8287;51.644;8.494;2023-06-22T10:38:57;100361.88;;;28.05;68.02
16355;BME280;8287;51.644;8.494;2023-06-22T10:41:26;100370.81;;;28.25;68.77
16355;BME280;8287;51.644;8.494;2023-06-22T10:43:55;100369.84;;;28.35;66.75
16355;BME280;8287;51.644;8.494;2023-06-22T10:46:24;100354.19;;;28.55;66.10
16355;BME280;8287;51.644;8.494;2023-06-22T10:48:51;100360.88;;;28.34;66.56
16355;BME280;8287;51.644;8.494;2023-06-22T10:51:19;100356.22;;;28.35;65.85
16355;BME280;8287;51.644;8.494;2023-06-22T10:53:47;100351.22;;;28.30;65.58
16355;BME280;8287;51.644;8.494;2023-06-22T10:56:14;100345.69;;;28.53;66.66
16355;BME280;8287;51.644;8.494;2023-06-22T10:58:40;100337.72;;;28.42;65.53
16355;BME280;8287;51.644;8.494;2023-06-22T11:01:07;100343.97;;;28.23;65.92
16355;BME280;8287;51.644;8.494;2023-06-22T11:03:33;100330.94;;;28.31;67.47
16355;BME280;8287;51.644;8.494;2023-06-22T11:06:00;100346.25;;;28.44;65.31
16355;BME280;8287;51.644;8.494;2023-06-22T11:08:27;100340.47;;;28.42;65.57
16355;BME280;8287;51.644;8.494;2023-06-22T11:10:54;100340.41;;;28.62;65.22
16355;BME280;8287;51.644;8.494;2023-06-22T11:13:21;100341.84;;;28.50;65.27
16355;BME280;8287;51.644;8.494;2023-06-22T11:15:48;100327.03;;;28.32;65.83
16355;BME280;8287;51.644;8.494;2023-06-22T11:18:14;100325.97;;;28.61;67.25
16355;BME280;8287;51.644;8.494;2023-06-22T11:20:42;100316.59;;;28.78;66.38
16355;BME280;8287;51.644;8.494;2023-06-22T11:23:08;100310.97;;;28.53;65.64
16355;BME280;8287;51.644;8.494;2023-06-22T11:25:35;100305.38;;;28.76;64.61
16355;BME280;8287;51.644;8.494;2023-06-22T11:28:05;100299.41;;;29.13;64.78
16355;BME280;8287;51.644;8.494;2023-06-22T11:30:31;100287.72;;;29.41;64.31
16355;BME280;8287;51.644;8.494;2023-06-22T11:32:58;100290.88;;;29.68;65.18
16355;BME280;8287;51.644;8.494;2023-06-22T11:35:26;100275.50;;;29.74;63.42
16355;BME280;8287;51.644;8.494;2023-06-22T11:37:52;100275.75;;;29.92;63.30
16355;BME280;8287;51.644;8.494;2023-06-22T11:40:19;100280.09;;;29.90;62.39
16355;BME280;8287;51.644;8.494;2023-06-22T11:42:46;100278.41;;;30.08;62.37
16355;BME280;8287;51.644;8.494;2023-06-22T11:45:14;100280.59;;;30.26;60.95
16355;BME280;8287;51.644;8.494;2023-06-22T11:47:41;100266.66;;;29.95;61.48
16355;BME280;8287;51.644;8.494;2023-06-22T11:50:08;100264.97;;;29.60;60.45
16355;BME280;8287;51.644;8.494;2023-06-22T11:52:35;100263.31;;;29.50;59.33
16355;BME280;8287;51.644;8.494;2023-06-22T11:55:02;100273.66;;;28.82;57.82
16355;BME280;8287;51.644;8.494;2023-06-22T11:57:32;100276.81;;;28.65;58.88
16355;BME280;8287;51.644;8.494;2023-06-22T11:59:58;100286.63;;;28.94;60.02
16355;BME280;8287;51.644;8.494;2023-06-22T12:02:26;100296.34;;;28.95;60.28
16355;BME280;8287;51.644;8.494;2023-06-22T12:04:53;100303.75;;;29.11;59.82
16355;BME280;8287;51.644;8.494;2023-06-22T12:07:21;100302.50;;;28.99;60.47
16355;BME280;8287;51.644;8.494;2023-06-22T12:09:48;100302.50;;;28.99;61.21
16355;BME280;8287;51.644;8.494;2023-06-22T12:12:15;100311.50;;;29.41;61.53
16355;BME280;8287;51.644;8.494;2023-06-22T12:14:41;100321.72;;;29.69;62.10
16355;BME280;8287;51.644;8.494;2023-06-22T12:17:08;100327.78;;;29.60;64.56
16355;BME280;8287;51.644;8.494;2023-06-22T12:19:36;100329.31;;;29.61;65.40
16355;BME280;8287;51.644;8.494;2023-06-22T12:22:02;100334.38;;;29.47;65.87
16355;BME280;8287;51.644;8.494;2023-06-22T12:24:29;100342.56;;;29.47;66.08
16355;BME280;8287;51.644;8.494;2023-06-22T12:26:56;100344.91;;;29.32;65.69
16355;BME280;8287;51.644;8.494;2023-06-22T12:29:22;100344.66;;;29.27;65.28
16355;BME280;8287;51.644;8.494;2023-06-22T12:31:49;100345.19;;;29.06;67.12
16355;BME280;8287;51.644;8.494;2023-06-22T12:34:15;100351.56;;;28.67;69.84
16355;BME280;8287;51.644;8.494;2023-06-22T12:36:43;100333.38;;;28.45;72.46
16355;BME280;8287;51.644;8.494;2023-06-22T12:39:10;100288.41;;;27.82;76.81
16355;BME280;8287;51.644;8.494;2023-06-22T12:41:36;100266.81;;;27.72;76.85
16355;BME280;8287;51.644;8.494;2023-06-22T12:44:03;100252.44;;;27.91;77.68
16355;BME280;8287;51.644;8.494;2023-06-22T12:46:30;100249.66;;;28.10;77.20
16355;BME280;8287;51.644;8.494;2023-06-22T12:49:02;100235.44;;;28.18;78.30
16355;BME280;8287;51.644;8.494;2023-06-22T12:51:29;100230.78;;;28.19;78.58
16355;BME280;8287;51.644;8.494;2023-06-22T12:53:57;100229.72;;;27.97;79.14
16355;BME280;8287;51.644;8.494;2023-06-22T12:56:24;100237.06;;;28.00;80.80
16355;BME280;8287;51.644;8.494;2023-06-22T12:58:51;100254.34;;;28.09;80.04
16355;BME280;8287;51.644;8.494;2023-06-22T13:01:17;100265.22;;;28.09;79.39